Portada
METAR-TAF:

METAR-TAF

Aeroports :

Saint-Yan, França

latitud: 46-24-45N, longitud: 004-00-48E, altitud: 244 m

Observació

L'informe es va fer fa 30 minuts, a les 17:30 UTC
Vent 6 kt del Oest/Nord-Oest, variant entre Oest i Nord/Nord-Oest
Temperatura 27°C
Humitat 34%
Pressió 1013 hPa
Visibilitat 10 km o més
sense núvols per sota de 1500 mi sense presència de cumulonimbus.

METAR: LFLN 021730Z AUTO 30006KT 270V330 CAVOK 27/10 Q1013 TEMPO FEW060CB

Hora: 20:00 (18:00 UTC)

Pronòstic

L'informe es va fer fa 1 hora i 0 minuts, a les 17:00 UTC
Pronòstic vàlid del 02 a les 18 UTC al 03 a les 03 UTC
Vent 3 kt amb direcció variable
Visibilitat 10 km o més
sense núvols per sota de 1500 mi sense presència de cumulonimbus.
Probabilitat 30% :
Temporalment
l' 02 a les 18 UTC al 02 a les 20 UTC
Escasses núvols a una alçada de 6000 ft, Cumulonimbus.

TAF: LFLN 021700Z 0218/0303 VRB03KT CAVOK PROB30 TEMPO 0218/0220 FEW060CB

Observacions i pronòstics meteorològics de més de 4000 aeroports (METAR i TAF).

Les estacions disponibles són els punts grocs i vermells al mapa.

Posi el ratolí al punt desitjat per veure el nom de l'estació.

Feu clic per veure les observacions i els pronòstics meteorològics.

Per canviar el mapa: feu clic els botons verds amb una creu de color negre per apropar; al botó verd amb un guió per allunyar la imatge; o en les fletxes verdes per a mapes adjacents.


METAR-TAF: